Terminal Aerodrome Forecast
Issued by NWS Central Illinois

Home | Current Version | Previous Version | Text Only | Print | Product List | Glossary On
Versions: 1 2 3 4 5 6 7 8 9 10 11 12 13 14 15 16 17 18 19
000
FTUS43 KILX 040400 AAB
TAFSPI
TAF AMD
KSPI 040410Z 0404/0424 32010KT P6SM SCT025 BKN120
     FM040600 32010G18KT P6SM OVC025
     FM041300 33012G20KT P6SM SCT025 BKN120=

USA.gov is the U.S. government's official web portal to all federal, state and local government web resources and services.